Flight Track Log - Related Links

Times and Time Zones

All times are in EDT time to prevent confusion due to time zone crossing. See the CES2228 flight status page for this flight to view local times or setup timezone preferences in your user account.

Time Position Orientation Groundspeed Altitude Reporting Facility
EDT Latitude Longitude Course Direction KTS MPH feet Rate Location/Type
Sat 09:46:00 PM 32.7622 106.5387 91° East  Level Estimated
Sat 09:47:00 PM 32.7560 106.6745 93° East  Level Estimated
Sat 09:48:00 PM 32.7498 106.8102 93° East  Level Estimated
Sat 09:49:00 PM 32.7433 106.9460 93° East  Level Estimated
Sat 09:50:00 PM 32.7368 107.0818 93° East  Level Estimated
Sat 09:51:00 PM 32.7300 107.2175 93° East  Level Estimated
Sat 09:52:00 PM 32.7232 107.3532 93° East  Level Estimated
Sat 09:53:00 PM 32.7162 107.4889 93° East  Level Estimated
Sat 09:54:00 PM 32.7090 107.6246 94° East  Level Estimated
Sat 09:55:00 PM 32.7017 107.7602 94° East  Level Estimated
Sat 09:56:00 PM 32.6943 107.8959 94° East  Level Estimated
Sat 09:57:00 PM 32.6867 108.0314 94° East  Level Estimated
Sat 09:58:00 PM 32.6790 108.1670 94° East  Level Estimated
Sat 09:59:00 PM 32.6711 108.3026 94° East  Level Estimated
Sat 10:00:00 PM 32.6630 108.4381 94° East  Level Estimated
Sat 10:01:00 PM 32.6549 108.5736 94° East  Level Estimated
Sat 10:02:00 PM 32.6465 108.7091 94° East  Level Estimated
Sat 10:03:00 PM 32.6381 108.8446 94° East  Level Estimated
Sat 10:04:00 PM 32.6295 108.9800 94° East  Level Estimated
Sat 10:05:00 PM 32.6207 109.1154 94° East  Level Estimated
Sat 10:06:00 PM 32.6118 109.2508 94° East  Level Estimated
Sat 10:07:00 PM 32.6027 109.3861 95° East  Level Estimated
Sat 10:08:00 PM 32.5936 109.5215 95° East  Level Estimated
Sat 10:09:00 PM 32.5842 109.6568 95° East  Level Estimated
Sat 10:10:00 PM 32.5747 109.7920 95° East  Level Estimated
Sat 10:11:00 PM 32.5651 109.9273 95° East  Level Estimated
Sat 10:12:00 PM 32.5553 110.0625 95° East  Level Estimated
Sat 10:13:00 PM 32.5454 110.1977 95° East  Level Estimated
Sat 10:14:00 PM 32.5354 110.3328 95° East  Level Estimated
Sat 10:15:00 PM 32.5252 110.4679 95° East  Level Estimated
Sat 10:16:00 PM 32.5148 110.6030 95° East  Level Estimated
Sat 10:17:00 PM 32.5043 110.7381 95° East  Level Estimated
Sat 10:18:00 PM 32.4937 110.8731 95° East  Level Estimated
Sat 10:19:00 PM 32.4829 111.0081 95° East  Level Estimated
Sat 10:20:00 PM 32.4720 111.1431 95° East  Level Estimated
Sat 10:21:00 PM 32.4609 111.2780 96° East  Level Estimated
Sat 10:22:00 PM 32.4497 111.4129 96° East  Level Estimated
Sat 10:23:00 PM 32.4383 111.5477 96° East  Level Estimated
Sat 10:24:00 PM 32.4268 111.6826 96° East  Level Estimated
Sat 10:25:00 PM 32.4151 111.8174 96° East  Level Estimated
Sat 10:26:00 PM 32.4034 111.9521 96° East  Level Estimated
Sat 10:27:00 PM 32.3914 112.0868 96° East  Level Estimated
Sat 10:28:00 PM 32.3793 112.2215 96° East  Level Estimated
Sat 10:29:00 PM 32.3671 112.3562 96° East  Level Estimated
Sat 10:30:00 PM 32.3548 112.4908 96° East  Level Estimated
Sat 10:31:00 PM 32.3423 112.6254 96° East  Level Estimated
Sat 10:32:00 PM 32.3296 112.7599 96° East  Level Estimated
Sat 10:33:00 PM 32.3168 112.8944 96° East  Level Estimated
Sat 10:34:00 PM 32.3039 113.0289 96° East  Level Estimated
Sat 10:35:00 PM 32.2908 113.1633 97° East  Level Estimated
Sat 10:36:00 PM 32.2776 113.2977 97° East  Level Estimated
Sat 10:37:00 PM 32.2642 113.4320 97° East  Level Estimated
Sat 10:38:00 PM 32.2507 113.5663 97° East  Level Estimated
Sat 10:39:00 PM 32.2371 113.7006 97° East  Level Estimated
Sat 10:40:00 PM 32.2233 113.8348 97° East  Level Estimated
Sat 10:41:00 PM 32.2094 113.9690 97° East  Level Estimated
Sat 10:42:00 PM 32.1953 114.1031 97° East  Level Estimated
Sat 10:43:00 PM 32.1811 114.2372 97° East  Level Estimated
Sat 10:44:00 PM 32.1667 114.3713 97° East  Level Estimated
Sat 10:45:00 PM 32.1522 114.5053 97° East  Level Estimated
Sat 10:46:00 PM 32.1376 114.6393 97° East  Level Estimated
Sat 10:47:00 PM 32.1228 114.7732 97° East  Level Estimated
Sat 10:48:00 PM 32.1079 114.9071 97° East  Level Estimated
Sat 10:49:00 PM 32.0928 115.0409 98° East  Level Estimated
Sat 10:50:00 PM 32.0776 115.1748 98° East  Level Estimated
Sat 10:51:00 PM 32.0623 115.3085 98° East  Level Estimated
Sat 10:52:00 PM 32.0468 115.4422 98° East  Level Estimated
Sat 10:53:00 PM 32.0312 115.5759 98° East  Level Estimated
Sat 10:54:00 PM 32.0154 115.7095 98° East  Level Estimated
Sat 10:55:00 PM 31.9995 115.8431 98° East  Level Estimated
Sat 10:56:00 PM 31.9835 115.9766 98° East  Level Estimated
Sat 10:57:00 PM 31.9673 116.1101 98° East  Level Estimated
Sat 10:58:00 PM 31.9510 116.2435 98° East  Level Estimated
Sat 10:59:00 PM 31.9345 116.3769 98° East  Level Estimated
Sat 11:00:00 PM 31.9179 116.5102 98° East  Level Estimated
Sat 11:01:00 PM 31.9012 116.6435 98° East  Level Estimated
Sat 11:02:00 PM 31.8843 116.7767 98° East  Level Estimated
Sat 11:03:00 PM 31.8673 116.9099 99° East  Level Estimated
Sat 11:04:00 PM 31.8501 117.0431 99° East  Level Estimated
Sat 11:05:00 PM 31.8329 117.1762 99° East  Level Estimated
Sat 11:06:00 PM 31.8154 117.3092 99° East  Level Estimated
Sat 11:07:00 PM 31.7979 117.4422 99° East  Level Estimated
Sat 11:08:00 PM 31.7801 117.5751 99° East  Level Estimated
Sat 11:09:00 PM 31.7623 117.7080 99° East  Level Estimated
Sat 11:10:00 PM 31.7443 117.8409 99° East  Level Estimated
Sat 11:11:00 PM 31.7262 117.9736 99° East  Level Estimated
Sat 11:12:00 PM 31.7079 118.1064 99° East  Level Estimated
Sat 11:13:00 PM 31.6895 118.2391 99° East  Level Estimated
Sat 11:14:00 PM 31.6710 118.3717 99° East  Level Estimated
Sat 11:15:00 PM 31.6523 118.5042 99° East  Level Estimated
Sat 11:16:00 PM 31.6335 118.6368 99° East  Level Estimated
Sat 11:17:00 PM 31.6146 118.7692 99° East  Level Estimated
Sat 11:18:00 PM 31.5955 118.9016 100° East  Level Estimated
Sat 11:19:00 PM 31.5763 119.0340 100° East  Level Estimated
Sat 11:20:00 PM 31.5569 119.1663 100° East  Level Estimated
Sat 11:21:00 PM 31.5374 119.2986 100° East  Level Estimated
Sat 11:22:00 PM 31.5178 119.4307 100° East  Level Estimated
Sat 11:22:25 PM 31.5550 120.4410 100° East 408 470 20,700  Level FlightAware ADS-B
Sat 11:22:53 PM 31.5380 120.4980 109° East 407 468 20,700  Level FlightAware ADS-B
Sat 11:23:00 PM 31.4980 119.5629 100° East  Level Estimated
Sat 11:23:33 PM 31.5110 120.5870 110° East 407 468 20,700  Level FlightAware ADS-B
Sat 11:24:03 PM 31.4930 120.6470 109° East 409 471 20,500 -1,040 Descending FlightAware ADS-B
Sat 11:24:48 PM 31.4660 120.7380 109° East 396 456 19,400 -1,500 Descending FlightAware ADS-B
Sat 11:25:23 PM 31.4440 120.8090 110° East 386 444 18,500 -1,629 Descending FlightAware ADS-B
Sat 11:25:58 PM 31.4220 120.8800 110° East 385 443 17,500 -1,714 Descending FlightAware ADS-B
Sat 11:26:33 PM 31.4010 120.9480 110° East 377 434 16,500 -1,622 Descending FlightAware ADS-B
Sat 11:27:12 PM 31.3780 121.0240 110° East 369 425 15,500 -1,558 Descending FlightAware ADS-B
Sat 11:27:50 PM 31.3560 121.0930 110° East 366 421 14,500 -1,625 Descending FlightAware ADS-B
Sat 11:28:00 PM 31.3480 121.1100 119° Southeast 361 415 14,200 -1,091 Descending FlightAware ADS-B
Sat 11:28:23 PM 31.3220 121.1400 135° Southeast 341 392 13,900 -381 Descending FlightAware ADS-B
Sat 11:29:03 PM 31.2730 121.1890 139° Southeast 344 396 13,800 -493 Descending FlightAware ADS-B
Sat 11:29:36 PM 31.2310 121.2320 139° Southeast 353 406 13,300 -896 Descending FlightAware ADS-B
Sat 11:30:10 PM 31.1890 121.2740 139° Southeast 354 407 12,800 -769 Descending FlightAware ADS-B
Sat 11:30:54 PM 31.1390 121.3270 138° Southeast 349 402 12,300 -706 Descending FlightAware ADS-B
Sat 11:31:01 PM 31.1300 121.3410 127° Southeast 349 402 12,200 -1,000 Descending FlightAware ADS-B
Sat 11:31:12 PM 31.1250 121.3600 107° East 348 400 12,000 -1,200 Descending FlightAware ADS-B
Sat 11:31:51 PM 31.1250 121.4330 90° East 339 390 11,200 -1,304 Descending FlightAware ADS-B
Sat 11:32:21 PM 31.1270 121.4870 88° East 331 381 10,500 -1,043 Descending FlightAware ADS-B
Sat 11:33:00 PM 31.1280 121.5490 89° East 306 352 10,000 -915 Descending FlightAware ADS-B
Sat 11:33:20 PM 31.1290 121.5810 88° East 300 345 9,600 -1,364 Descending FlightAware ADS-B
Sat 11:33:44 PM 31.1290 121.6220 90° East 295 339 9,000 -1,385 Descending FlightAware ADS-B
Sat 11:33:59 PM 31.1290 121.6430 90° East 291 335 8,700 -1,333 Descending FlightAware ADS-B
Sat 11:34:11 PM 31.1260 121.6550 106° East 290 334 8,400 -1,875 Descending FlightAware ADS-B
Sat 11:34:15 PM 31.1210 121.6660 118° Southeast 292 336 8,200 -2,308 Descending FlightAware ADS-B
Sat 11:34:24 PM 31.1100 121.6780 137° Southeast 285 328 7,900 -1,500 Descending FlightAware ADS-B
Sat 11:34:31 PM 31.1060 121.6810 147° Southeast 284 327 7,800 -1,200 Descending FlightAware ADS-B
Sat 11:34:34 PM 31.1000 121.6840 157° South 282 325 7,700 -462 Descending FlightAware ADS-B
Sat 11:34:44 PM 31.0890 121.6880 163° South 284 327 7,700 -444 Level FlightAware ADS-B
Sat 11:35:01 PM 31.0680 121.6960 162° South 271 312 7,500 -706 Descending FlightAware ADS-B
Sat 11:35:18 PM 31.0440 121.7050 162° South 259 298 7,300 -600 Descending FlightAware ADS-B
Sat 11:35:41 PM 31.0220 121.7140 161° South 242 278 7,100 -732 Descending FlightAware ADS-B
Sat 11:35:59 PM 31.0000 121.7220 163° South 235 270 6,800 -1,105 Descending FlightAware ADS-B
Sat 11:36:19 PM 30.9800 121.7290 163° South 241 277 6,400 -1,200 Descending FlightAware ADS-B
Sat 11:36:44 PM 30.9520 121.7400 161° South 238 274 5,900 -1,021 Descending FlightAware ADS-B
Sat 11:37:06 PM 30.9310 121.7470 164° South 234 269 5,600 -778 Descending FlightAware ADS-B
Sat 11:37:38 PM 30.8970 121.7600 162° South 217 250 5,200 -906 Descending FlightAware ADS-B
Sat 11:37:59 PM 30.8790 121.7660 164° South 207 238 4,800 -1,171 Descending FlightAware ADS-B
Sat 11:38:19 PM 30.8580 121.7740 162° South 207 238 4,400 -526 Descending FlightAware ADS-B
Sat 11:38:56 PM 30.8290 121.7860 160° South 207 238 4,300 -500 Descending FlightAware ADS-B
Sat 11:39:19 PM 30.8020 121.7950 164° South 206 237 3,900 -571 Descending FlightAware ADS-B
Sat 11:39:38 PM 30.7830 121.8040 158° South 210 242 3,900  Level FlightAware ADS-B
Sat 11:39:43 PM 30.7800 121.8070 139° Southeast 201 231 3,900  Level FlightAware ADS-B
Sat 11:39:49 PM 30.7770 121.8120 125° Southeast 203 234 3,900  Level FlightAware ADS-B
Sat 11:40:01 PM 30.7740 121.8220 109° East 193 222 3,900  Level FlightAware ADS-B
Sat 11:40:25 PM 30.7770 121.8470 82° East 188 216 3,900  Level FlightAware ADS-B
Sat 11:40:49 PM 30.7820 121.8710 76° East 184 212 3,900  Level FlightAware ADS-B
Sat 11:40:55 PM 30.7830 121.8740 69° East 179 206 3,900  Level FlightAware ADS-B
Sat 11:40:59 PM 30.7870 121.8790 47° Northeast 181 208 3,900  Level FlightAware ADS-B
Sat 11:41:04 PM 30.7900 121.8810 30° Northeast 172 198 3,900  Level FlightAware ADS-B
Sat 11:41:18 PM 30.8030 121.8850 15° North 181 208 3,900  Level FlightAware ADS-B
Sat 11:41:44 PM 30.8230 121.8910 14° North 181 208 3,900  Level FlightAware ADS-B
Sat 11:42:04 PM 30.8390 121.8950 12° North 181 208 3,900  Level FlightAware ADS-B
Sat 11:42:39 PM 30.8690 121.8910 353° North 184 212 3,900  Level FlightAware ADS-B
Sat 11:43:00 PM 30.8850 121.8850 342° North 187 215 3,900  Level FlightAware ADS-B
Sat 11:43:20 PM 30.9000 121.8790 341° North 187 215 3,900  Level FlightAware ADS-B
Sat 11:43:40 PM 30.9180 121.8730 344° North 184 212 3,900 -146 Level FlightAware ADS-B
Sat 11:44:01 PM 30.9340 121.8660 339° North 188 216 3,800 -682 Descending FlightAware ADS-B
Sat 11:44:24 PM 30.9550 121.8590 344° North 186 214 3,400 -977 Descending FlightAware ADS-B
Sat 11:44:44 PM 30.9720 121.8520 341° North 185 213 3,100 -1,067 Descending FlightAware ADS-B
Sat 11:45:09 PM 30.9920 121.8450 343° North 175 201 2,600 -1,000 Descending FlightAware ADS-B
Sat 11:45:26 PM 31.0040 121.8400 340° North 167 192 2,400 -286 Descending FlightAware ADS-B
Sat 11:45:51 PM 31.0190 121.8340 341° North 167 192 2,400 -900 Level FlightAware ADS-B
Sat 11:46:06 PM 31.0350 121.8290 345° North 153 176 1,800 -1,263 Descending FlightAware ADS-B
Sat 11:46:29 PM 31.0470 121.8240 340° North 137 158 1,600 -667 Descending FlightAware ADS-B
Sat 11:46:51 PM 31.0610 121.8190 343° North 116 133 1,300 -714 Descending FlightAware ADS-B
Sat 11:47:11 PM 31.0710 121.8150 341° North 118 136 1,100 -222 Descending FlightAware ADS-B
Sat 11:47:45 PM 31.0850 121.8090 340° North 118 136 1,100 -522 Level FlightAware ADS-B
Sat 11:47:57 PM 31.0950 121.8060 346° North 118 136 700 -1,161 Descending FlightAware ADS-B
Sat 11:48:16 PM 31.1040 121.8030 344° North 121 139 500 -400 Descending FlightAware ADS-B
Sat 11:48:57 PM 31.1250 121.7950 342° North 122 140 300 -293 Descending FlightAware ADS-B
Sat 11:51:00 PM 31.1428 121.7924 353° North  Level Estimated
Sat 11:52:00 PM 31.1428 121.7924 221° Southwest  Level Estimated
Sat 11:53:00 PM 31.1428 121.7924 221° Southwest  Level Estimated
Sat 11:54:00 PM 31.1428 121.7924 221° Southwest  Level Estimated

Login

Don't have an account? Register now (free) for customized features, flight alerts, and more!